Time;durP1;ratioP1;P1;durP2;ratioP2;P2;SDS_P1;SDS_P2;PMS_P1;PMS_P2;Temp;Humidity;BMP_temperature;BMP_pressure;BME280_temperature;BME280_humidity;BME280_pressure;Samples;Min_cycle;Max_cycle;Signal;HPM_P1;HPM_P2
2021/12/31 00:00:28;;;;;;;6.27;3.90;;;;;;;11.10;100.00;98613.84;4925102;29;20240;-69
2021/12/31 00:02:56;;;;;;;2.97;2.70;;;;;;;11.03;100.00;98604.84;4926560;29;20538;-70
2021/12/31 00:05:24;;;;;;;2.27;2.17;;;;;;;11.00;100.00;98603.31;4926826;29;20214;-69
2021/12/31 00:07:53;;;;;;;1.73;1.60;;;;;;;11.02;100.00;98607.63;4924879;29;20267;-69
2021/12/31 00:10:20;;;;;;;3.10;1.90;;;;;;;11.04;100.00;98600.34;4925397;29;20231;-69
2021/12/31 00:12:48;;;;;;;2.47;1.80;;;;;;;11.02;100.00;98599.66;4927012;29;20211;-70
2021/12/31 00:15:18;;;;;;;1.83;1.73;;;;;;;10.99;100.00;98601.63;4926412;29;20218;-70
2021/12/31 00:17:47;;;;;;;2.90;1.87;;;;;;;11.02;100.00;98608.47;4927292;29;20231;-70
2021/12/31 00:20:18;;;;;;;2.13;1.97;;;;;;;11.04;100.00;98606.50;4925243;29;20672;-70
2021/12/31 00:23:06;;;;;;;2.43;2.23;;;;;;;11.02;100.00;98599.66;4924076;29;20200;-70
2021/12/31 00:25:36;;;;;;;1.60;1.50;;;;;;;11.01;100.00;98601.50;4928162;29;20212;-70
2021/12/31 00:28:05;;;;;;;1.70;1.60;;;;;;;11.08;100.00;98589.28;4929551;29;20710;-70
2021/12/31 00:30:34;;;;;;;1.63;1.57;;;;;;;10.99;100.00;98596.34;4925797;29;20239;-70
2021/12/31 00:33:03;;;;;;;1.60;1.57;;;;;;;10.95;100.00;98596.78;4928096;29;20684;-70
2021/12/31 00:35:33;;;;;;;2.33;1.63;;;;;;;10.94;100.00;98593.31;4928646;29;20239;-70
2021/12/31 00:38:01;;;;;;;2.37;1.90;;;;;;;10.89;100.00;98600.88;4929111;29;20235;-70
2021/12/31 00:40:29;;;;;;;2.77;1.67;;;;;;;10.95;100.00;98602.94;4930170;29;20236;-69
2021/12/31 00:42:57;;;;;;;1.63;1.53;;;;;;;10.92;100.00;98603.22;4922483;29;20580;-70
2021/12/31 00:45:25;;;;;;;1.40;1.40;;;;;;;10.87;100.00;98600.22;4927326;29;20207;-70
2021/12/31 00:47:55;;;;;;;1.87;1.77;;;;;;;10.86;100.00;98609.97;4924766;29;20203;-70
2021/12/31 00:50:23;;;;;;;2.03;1.93;;;;;;;10.89;100.00;98615.94;4925453;29;20228;-71
2021/12/31 00:52:51;;;;;;;2.40;1.50;;;;;;;10.88;100.00;98617.78;4925209;29;20215;-70
2021/12/31 00:55:19;;;;;;;3.23;1.60;;;;;;;10.96;100.00;98606.41;4924687;29;20695;-70
2021/12/31 00:57:48;;;;;;;2.17;1.70;;;;;;;10.92;100.00;98613.00;4925665;29;20235;-71
2021/12/31 01:00:17;;;;;;;4.07;1.77;;;;;;;10.78;100.00;98617.00;4928137;29;20232;-71
2021/12/31 01:02:46;;;;;;;2.50;2.27;;;;;;;10.69;100.00;98614.25;4927030;29;20695;-70
2021/12/31 01:05:16;;;;;;;2.60;1.77;;;;;;;10.73;100.00;98609.50;4924491;29;20207;-70
2021/12/31 01:07:44;;;;;;;1.20;1.10;;;;;;;10.74;100.00;98619.13;4926087;29;20207;-71
2021/12/31 01:10:15;;;;;;;3.50;2.53;;;;;;;10.75;100.00;98612.00;4924629;29;20310;-70
2021/12/31 01:12:43;;;;;;;1.50;1.40;;;;;;;10.81;100.00;98617.53;4928085;29;20212;-70
2021/12/31 01:15:18;;;;;;;3.73;1.87;;;;;;;10.85;100.00;98615.44;4928514;29;20215;-70
2021/12/31 01:18:04;;;;;;;1.33;1.33;;;;;;;10.80;100.00;98617.72;4926466;29;20230;-69
2021/12/31 01:20:33;;;;;;;2.50;1.40;;;;;;;10.88;100.00;98616.94;4926708;29;20324;-71
2021/12/31 01:23:01;;;;;;;2.17;1.97;;;;;;;10.73;100.00;98617.47;4928425;29;20218;-70
2021/12/31 01:25:34;;;;;;;3.80;1.47;;;;;;;10.74;100.00;98627.09;4928585;29;20204;-71
2021/12/31 01:28:01;;;;;;;1.67;1.60;;;;;;;10.74;100.00;98631.53;4928444;29;20212;-70
2021/12/31 01:30:29;;;;;;;1.37;1.27;;;;;;;10.77;100.00;98633.88;4928873;29;20604;-71
2021/12/31 01:32:57;;;;;;;1.40;1.40;;;;;;;10.78;100.00;98630.25;4927175;29;20613;-71
2021/12/31 01:35:26;;;;;;;1.63;1.30;;;;;;;10.91;100.00;98625.44;4929916;29;20214;-71
2021/12/31 01:37:55;;;;;;;1.93;1.40;;;;;;;10.91;100.00;98629.88;4928321;29;20723;-70
2021/12/31 01:40:23;;;;;;;2.20;1.50;;;;;;;10.81;100.00;98625.50;4927922;29;20304;-71
2021/12/31 01:42:52;;;;;;;5.27;1.90;;;;;;;10.82;100.00;98621.03;4930520;29;20210;-70
2021/12/31 01:45:21;;;;;;;1.77;1.63;;;;;;;10.77;100.00;98628.59;4927869;29;20216;-70
2021/12/31 01:48:04;;;;;;;1.77;1.43;;;;;;;10.74;100.00;98628.88;4924614;29;20235;-70
2021/12/31 01:50:33;;;;;;;3.73;1.80;;;;;;;10.68;100.00;98620.53;4926233;29;20592;-71
2021/12/31 01:53:05;;;;;;;3.17;1.90;;;;;;;10.79;100.00;98613.34;4927871;29;20215;-70
2021/12/31 01:55:34;;;;;;;2.07;1.77;;;;;;;10.70;100.00;98620.41;4927118;29;20207;-71
2021/12/31 01:58:04;;;;;;;1.80;1.57;;;;;;;10.71;100.00;98630.03;4928302;29;20242;-70
2021/12/31 02:00:32;;;;;;;1.20;1.20;;;;;;;10.74;100.00;98628.88;4928119;29;20224;-70
2021/12/31 02:03:01;;;;;;;1.40;1.30;;;;;;;10.76;100.00;98630.41;4928092;29;20239;-71
2021/12/31 02:05:30;;;;;;;1.50;1.13;;;;;;;10.68;100.00;98644.41;4925274;29;20216;-70
2021/12/31 02:07:58;;;;;;;1.10;1.10;;;;;;;10.68;100.00;98652.34;4934379;29;20557;-70
2021/12/31 02:10:28;;;;;;;1.90;1.70;;;;;;;10.70;100.00;98645.09;4933687;29;20254;-71
2021/12/31 02:12:56;;;;;;;1.40;1.30;;;;;;;10.73;100.00;98636.03;4932035;29;20204;-71
2021/12/31 02:15:25;;;;;;;2.43;1.23;;;;;;;10.64;100.00;98643.03;4927578;29;20215;-71
2021/12/31 02:17:53;;;;;;;2.10;1.27;;;;;;;10.64;100.00;98640.38;4932621;29;20238;-71
2021/12/31 02:20:23;;;;;;;1.27;1.17;;;;;;;10.67;100.00;98631.31;4935772;29;20240;-70
2021/12/31 02:22:55;;;;;;;1.73;1.20;;;;;;;10.65;100.00;98626.16;4925550;29;20215;-71
2021/12/31 02:25:25;;;;;;;1.30;1.30;;;;;;;10.64;100.00;98636.91;4927625;29;20208;-70
2021/12/31 02:27:53;;;;;;;1.73;1.47;;;;;;;10.57;100.00;98637.47;4928182;29;20212;-71
2021/12/31 02:30:21;;;;;;;1.13;1.03;;;;;;;10.59;100.00;98632.06;4937013;29;20230;-70
2021/12/31 02:32:49;;;;;;;1.53;1.43;;;;;;;10.63;100.00;98629.94;4931564;29;20212;-71
2021/12/31 02:35:18;;;;;;;1.40;1.27;;;;;;;10.60;100.00;98635.53;4928387;29;20218;-70
2021/12/31 02:37:47;;;;;;;1.30;1.20;;;;;;;10.59;100.00;98626.75;4929657;29;20648;-71
2021/12/31 02:40:17;;;;;;;1.67;1.57;;;;;;;10.56;100.00;98627.06;4930374;29;20274;-69
2021/12/31 02:42:45;;;;;;;1.40;1.30;;;;;;;10.57;100.00;98626.88;4928428;29;20200;-71
2021/12/31 02:45:14;;;;;;;1.20;1.10;;;;;;;10.61;100.00;98630.09;4928244;29;20383;-70
2021/12/31 02:47:45;;;;;;;1.53;1.43;;;;;;;10.56;100.00;98621.75;4927588;29;20725;-70
2021/12/31 02:50:15;;;;;;;2.33;1.20;;;;;;;10.64;100.00;98628.97;4927735;29;20302;-70
2021/12/31 02:52:43;;;;;;;1.90;1.70;;;;;;;10.52;100.00;98626.50;4927555;29;20212;-70
2021/12/31 02:55:13;;;;;;;1.80;1.70;;;;;;;10.50;100.00;98625.00;4925810;29;20647;-70
2021/12/31 02:57:42;;;;;;;2.60;1.03;;;;;;;10.43;100.00;98619.44;4927400;29;20299;-70
2021/12/31 03:00:11;;;;;;;1.20;1.10;;;;;;;10.42;100.00;98621.28;4927560;29;20342;-70
2021/12/31 03:02:39;;;;;;;1.60;1.50;;;;;;;10.40;100.00;98623.22;4927026;29;20680;-70
2021/12/31 03:05:09;;;;;;;1.13;1.13;;;;;;;10.38;100.00;98622.50;4922570;29;20208;-70
2021/12/31 03:07:38;;;;;;;1.70;1.60;;;;;;;10.43;100.00;98622.09;4928698;29;20211;-71
2021/12/31 03:10:07;;;;;;;1.13;1.13;;;;;;;10.53;100.00;98622.03;4932045;29;20235;-70
2021/12/31 03:12:38;;;;;;;1.70;1.40;;;;;;;10.46;100.00;98618.34;4929346;29;20238;-70
2021/12/31 03:15:07;;;;;;;1.93;1.50;;;;;;;10.45;100.00;98611.38;4928992;29;20336;-70
2021/12/31 03:17:35;;;;;;;1.57;1.50;;;;;;;10.51;100.00;98610.75;4934855;29;20269;-69
2021/12/31 03:20:10;;;;;;;2.27;2.17;;;;;;;10.51;100.00;98616.06;4930315;29;20320;-70
2021/12/31 03:22:38;;;;;;;1.53;1.40;;;;;;;10.50;100.00;98604.63;4935327;29;20215;-70
2021/12/31 03:25:08;;;;;;;1.50;1.40;;;;;;;10.54;100.00;98610.47;4929314;29;20214;-69
2021/12/31 03:27:37;;;;;;;1.40;1.30;;;;;;;10.53;100.00;98611.44;4933656;29;20269;-69
2021/12/31 03:30:07;;;;;;;1.87;1.77;;;;;;;10.54;100.00;98594.56;4935086;29;20231;-70
2021/12/31 03:32:34;;;;;;;1.10;1.10;;;;;;;10.54;100.00;98598.03;4929704;29;20220;-70
2021/12/31 03:35:03;;;;;;;1.23;1.23;;;;;;;10.53;100.00;98598.19;4931830;29;20204;-70
2021/12/31 03:37:30;;;;;;;2.10;2.00;;;;;;;10.59;100.00;98594.09;4930060;29;20204;-70
2021/12/31 03:39:59;;;;;;;2.10;1.90;;;;;;;10.57;100.00;98588.97;4933298;29;20231;-70
2021/12/31 03:42:27;;;;;;;1.50;1.40;;;;;;;10.54;100.00;98594.56;4934134;29;20524;-70
2021/12/31 03:44:56;;;;;;;1.53;1.43;;;;;;;10.57;100.00;98602.22;4931209;29;20226;-71
2021/12/31 03:47:24;;;;;;;2.13;1.70;;;;;;;10.54;100.00;98605.16;4934306;29;20210;-70
2021/12/31 03:49:52;;;;;;;1.70;1.60;;;;;;;10.49;100.00;98602.13;4928019;29;20235;-70
2021/12/31 03:52:20;;;;;;;1.83;1.73;;;;;;;10.49;100.00;98604.78;4933181;29;20212;-70
2021/12/31 03:54:48;;;;;;;1.67;1.57;;;;;;;10.58;100.00;98603.88;4931120;29;20482;-71
2021/12/31 03:57:16;;;;;;;1.60;1.50;;;;;;;10.54;100.00;98602.50;4928159;29;20207;-70
2021/12/31 03:59:44;;;;;;;1.30;1.20;;;;;;;10.52;100.00;98610.59;4929833;29;20242;-70
2021/12/31 04:02:13;;;;;;;1.40;1.20;;;;;;;10.58;100.00;98611.84;4930053;29;20356;-70
2021/12/31 04:04:41;;;;;;;1.50;1.40;;;;;;;10.64;100.00;98607.75;4929811;29;20278;-70
2021/12/31 04:07:09;;;;;;;1.10;1.10;;;;;;;10.62;100.00;98607.91;4928995;29;20212;-70
2021/12/31 04:09:37;;;;;;;1.10;1.10;;;;;;;10.56;100.00;98619.09;4936643;29;20223;-71
2021/12/31 04:12:06;;;;;;;1.60;1.50;;;;;;;10.60;100.00;98617.81;4927753;29;20215;-70
2021/12/31 04:14:34;;;;;;;1.70;1.60;;;;;;;10.55;100.00;98612.94;4929207;29;20212;-70
2021/12/31 04:17:02;;;;;;;1.97;1.87;;;;;;;10.55;100.00;98618.25;4927012;29;20427;-69
2021/12/31 04:19:31;;;;;;;2.83;1.40;;;;;;;10.56;100.00;98624.41;4930608;29;20231;-69
2021/12/31 04:21:59;;;;;;;1.53;1.47;;;;;;;10.55;100.00;98612.94;4926005;29;20588;-69
2021/12/31 04:24:50;;;;;;;1.33;1.33;;;;;;;10.45;100.00;98617.47;4934417;29;20203;-69
2021/12/31 04:27:18;;;;;;;1.20;1.07;;;;;;;10.53;100.00;98614.91;4926567;29;20218;-70
2021/12/31 04:29:50;;;;;;;3.67;1.97;;;;;;;10.49;100.00;98625.97;4927744;29;20240;-69
2021/12/31 04:32:20;;;;;;;1.73;1.63;;;;;;;10.52;100.00;98618.53;4924004;29;20719;-70
2021/12/31 04:34:49;;;;;;;1.57;1.50;;;;;;;10.54;100.00;98618.41;4925323;29;20211;-68
2021/12/31 04:37:17;;;;;;;2.07;1.50;;;;;;;10.56;100.00;98617.25;4928692;29;20212;-70
2021/12/31 04:39:45;;;;;;;1.80;1.37;;;;;;;10.48;100.00;98622.47;4932121;29;20238;-69
2021/12/31 04:42:13;;;;;;;1.33;1.23;;;;;;;10.49;100.00;98626.78;4925807;29;20247;-71
2021/12/31 04:44:41;;;;;;;3.60;1.60;;;;;;;10.56;100.00;98627.88;4930778;29;20215;-70
2021/12/31 04:47:09;;;;;;;1.23;1.23;;;;;;;10.53;100.00;98622.88;4930836;29;20207;-70
2021/12/31 04:49:37;;;;;;;2.53;1.53;;;;;;;10.47;100.00;98615.50;4932306;29;20227;-70
2021/12/31 04:52:06;;;;;;;1.60;1.50;;;;;;;10.44;100.00;98625.59;4935476;29;20207;-70
2021/12/31 04:54:34;;;;;;;1.47;1.40;;;;;;;10.43;100.00;98627.41;4935042;29;20608;-71
2021/12/31 04:57:03;;;;;;;1.70;1.60;;;;;;;10.39;100.00;98626.00;4932899;29;20606;-70
2021/12/31 04:59:31;;;;;;;2.87;1.57;;;;;;;10.44;100.00;98633.53;4934287;29;20238;-70
2021/12/31 05:01:59;;;;;;;2.03;1.87;;;;;;;10.41;100.00;98630.19;4940123;29;20210;-71
2021/12/31 05:04:27;;;;;;;1.07;1.07;;;;;;;10.35;100.00;98617.50;4929964;29;20251;-69
2021/12/31 05:06:56;;;;;;;1.73;1.43;;;;;;;10.38;100.00;98619.03;4938174;28;20219;-70
2021/12/31 05:09:25;;;;;;;1.70;1.60;;;;;;;10.42;100.00;98618.63;4934044;29;20223;-70
2021/12/31 05:11:53;;;;;;;1.80;1.33;;;;;;;10.47;100.00;98618.16;4935996;29;20223;-69
2021/12/31 05:14:22;;;;;;;1.67;1.57;;;;;;;10.41;100.00;98619.56;4930509;29;20270;-69
2021/12/31 05:16:50;;;;;;;1.60;1.50;;;;;;;10.41;100.00;98619.56;4931921;29;20241;-68
2021/12/31 05:19:18;;;;;;;2.70;1.53;;;;;;;10.41;100.00;98616.94;4931060;29;20251;-69
2021/12/31 05:21:46;;;;;;;1.30;1.30;;;;;;;10.44;100.00;98625.59;4932757;29;20583;-68
2021/12/31 05:24:16;;;;;;;1.63;1.53;;;;;;;10.40;100.00;98625.03;4934070;29;20580;-68
2021/12/31 05:26:45;;;;;;;1.00;1.00;;;;;;;10.38;100.00;98622.50;4929979;29;20207;-71
2021/12/31 05:29:13;;;;;;;0.90;0.90;;;;;;;10.44;100.00;98618.47;4932264;29;20574;-69
2021/12/31 05:31:41;;;;;;;1.30;1.20;;;;;;;10.38;100.00;98619.03;4937491;29;20242;-70
2021/12/31 05:34:09;;;;;;;1.37;1.27;;;;;;;10.36;100.00;98611.22;4931275;29;20287;-70
2021/12/31 05:36:37;;;;;;;1.90;1.20;;;;;;;10.33;100.00;98611.50;4931420;29;20765;-70
2021/12/31 05:39:05;;;;;;;2.27;1.00;;;;;;;10.40;100.00;98609.97;4928821;29;20330;-70
2021/12/31 05:41:34;;;;;;;1.43;1.40;;;;;;;10.36;100.00;98611.22;4932239;29;20728;-71
2021/12/31 05:44:04;;;;;;;1.57;1.47;;;;;;;10.36;100.00;98613.03;4935403;29;20210;-71
2021/12/31 05:46:32;;;;;;;1.80;1.67;;;;;;;10.32;100.00;98609.84;4930371;29;20211;-71
2021/12/31 05:49:01;;;;;;;2.53;1.70;;;;;;;10.31;100.00;98610.81;4932730;29;20226;-70
2021/12/31 05:51:30;;;;;;;1.10;1.10;;;;;;;10.32;100.00;98614.31;4928433;29;20219;-71
2021/12/31 05:53:58;;;;;;;1.00;1.00;;;;;;;10.36;100.00;98613.84;4929299;29;20724;-71
2021/12/31 05:56:26;;;;;;;1.60;1.50;;;;;;;10.35;100.00;98614.03;4928442;29;20436;-69
2021/12/31 05:58:54;;;;;;;1.50;1.40;;;;;;;10.39;100.00;98610.09;4927950;29;20235;-70
2021/12/31 06:01:23;;;;;;;1.00;1.00;;;;;;;10.29;100.00;98610.13;4929375;29;20227;-71
2021/12/31 06:03:51;;;;;;;3.23;1.33;;;;;;;10.27;100.00;98612.94;4933658;29;20215;-70
2021/12/31 06:06:19;;;;;;;2.70;1.47;;;;;;;10.35;100.00;98611.38;4933092;29;20743;-69
2021/12/31 06:08:47;;;;;;;1.83;1.67;;;;;;;10.31;100.00;98605.53;4933249;29;20653;-70
2021/12/31 06:11:15;;;;;;;2.33;1.87;;;;;;;10.27;100.00;98612.94;4931001;29;20215;-69
2021/12/31 06:13:45;;;;;;;1.70;1.60;;;;;;;10.27;100.00;98612.94;4927630;29;20283;-70
2021/12/31 06:16:13;;;;;;;1.87;1.53;;;;;;;10.23;100.00;98610.72;4925947;29;20641;-71
2021/12/31 06:18:42;;;;;;;1.67;1.57;;;;;;;10.25;100.00;98616.72;4931825;29;20238;-70
2021/12/31 06:21:10;;;;;;;1.40;1.30;;;;;;;10.26;100.00;98610.44;4929753;29;20238;-70
2021/12/31 06:23:38;;;;;;;1.10;1.10;;;;;;;10.21;100.00;98607.41;4935236;29;20211;-70
2021/12/31 06:26:26;;;;;;;1.53;1.43;;;;;;;10.25;100.00;98611.41;4931568;29;20456;-70
2021/12/31 06:28:54;;;;;;;1.80;1.70;;;;;;;10.23;100.00;98610.72;4930874;29;20574;-70
2021/12/31 06:31:22;;;;;;;1.37;1.27;;;;;;;10.25;100.00;98606.13;4933990;29;20215;-71
2021/12/31 06:33:51;;;;;;;1.43;1.43;;;;;;;10.32;100.00;98603.72;4926223;29;20626;-69
2021/12/31 06:36:20;;;;;;;1.37;1.37;;;;;;;10.22;100.00;98606.41;4929392;29;20223;-70
2021/12/31 06:38:49;;;;;;;1.40;1.30;;;;;;;10.23;100.00;98602.78;4932454;28;20724;-71
2021/12/31 06:41:17;;;;;;;1.60;1.50;;;;;;;10.23;100.00;98595.69;4925974;29;20641;-71
2021/12/31 06:43:45;;;;;;;1.63;1.53;;;;;;;10.29;100.00;98594.25;4932965;29;20294;-72
2021/12/31 06:46:13;;;;;;;2.03;1.73;;;;;;;10.24;100.00;98601.81;4935113;29;20302;-70
2021/12/31 06:48:41;;;;;;;2.83;1.90;;;;;;;10.11;100.00;98597.69;4923987;29;20525;-70
2021/12/31 06:51:12;;;;;;;2.60;2.50;;;;;;;10.10;100.00;98603.97;4930689;29;20239;-72
2021/12/31 06:53:40;;;;;;;1.70;1.60;;;;;;;10.08;100.00;98610.38;4933044;29;20301;-71
2021/12/31 06:56:08;;;;;;;1.90;1.80;;;;;;;10.08;100.00;98597.13;4928552;29;20208;-71
2021/12/31 06:58:37;;;;;;;1.37;1.37;;;;;;;10.13;100.00;98605.47;4932027;29;20273;-71
2021/12/31 07:01:05;;;;;;;2.93;1.97;;;;;;;10.12;100.00;98615.25;4931215;29;20572;-71
2021/12/31 07:03:33;;;;;;;1.60;1.50;;;;;;;10.09;100.00;98614.69;4928451;29;20689;-71
2021/12/31 07:06:01;;;;;;;1.97;1.83;;;;;;;10.14;100.00;98617.72;4929309;29;20218;-71
2021/12/31 07:08:31;;;;;;;2.30;2.10;;;;;;;10.19;100.00;98617.31;4929634;29;20207;-71
2021/12/31 07:10:59;;;;;;;2.50;1.60;;;;;;;10.12;100.00;98612.59;4933708;28;20207;-71
2021/12/31 07:13:27;;;;;;;1.50;1.40;;;;;;;10.10;100.00;98622.50;4928634;29;20457;-71
2021/12/31 07:15:55;;;;;;;2.53;1.27;;;;;;;10.10;100.00;98626.94;4930255;29;20215;-71
2021/12/31 07:18:23;;;;;;;1.83;1.70;;;;;;;10.07;100.00;98621.94;4926344;29;20270;-71
2021/12/31 07:20:52;;;;;;;1.90;1.73;;;;;;;10.15;100.00;98627.34;4928578;29;20581;-70
2021/12/31 07:23:21;;;;;;;1.20;1.20;;;;;;;10.09;100.00;98628.78;4927949;29;20756;-70
2021/12/31 07:25:51;;;;;;;2.30;1.67;;;;;;;10.19;100.00;98635.84;4929107;29;20214;-71
2021/12/31 07:28:19;;;;;;;1.27;1.27;;;;;;;10.10;100.00;98638.38;4930605;29;20245;-71
2021/12/31 07:30:48;;;;;;;1.40;1.40;;;;;;;10.12;100.00;98638.22;4932697;29;20437;-72
2021/12/31 07:33:17;;;;;;;2.33;1.83;;;;;;;10.09;100.00;98643.81;4930627;29;20521;-71
2021/12/31 07:35:45;;;;;;;2.43;1.70;;;;;;;10.23;100.00;98647.81;4934451;29;20204;-71
2021/12/31 07:38:20;;;;;;;2.77;1.80;;;;;;;10.14;100.00;98650.38;4936268;29;20207;-71
2021/12/31 07:40:50;;;;;;;2.33;1.20;;;;;;;10.12;100.00;98646.16;4932574;29;20246;-72
2021/12/31 07:43:20;;;;;;;1.63;1.53;;;;;;;10.12;100.00;98646.16;4928108;29;20210;-70
2021/12/31 07:45:48;;;;;;;1.77;1.67;;;;;;;10.11;100.00;98650.66;4930033;29;20200;-72
2021/12/31 07:48:16;;;;;;;1.67;1.57;;;;;;;10.16;100.00;98644.09;4926722;29;20673;-70
2021/12/31 07:50:45;;;;;;;1.87;1.77;;;;;;;10.13;100.00;98643.41;4936054;29;20208;-71
2021/12/31 07:53:13;;;;;;;1.60;1.50;;;;;;;10.11;100.00;98647.16;4930073;29;20655;-71
2021/12/31 07:55:41;;;;;;;1.30;1.20;;;;;;;10.07;100.00;98657.22;4927732;29;20211;-70
2021/12/31 07:58:09;;;;;;;1.90;1.67;;;;;;;10.11;100.00;98649.81;4931445;29;20204;-70
2021/12/31 08:00:39;;;;;;;1.80;1.70;;;;;;;10.13;100.00;98656.63;4931994;29;20264;-71
2021/12/31 08:03:07;;;;;;;1.83;1.73;;;;;;;10.12;100.00;98656.78;4931385;29;20340;-71
2021/12/31 08:05:35;;;;;;;7.90;7.03;;;;;;;10.16;100.00;98660.78;4932646;29;20245;-72
2021/12/31 08:08:05;;;;;;;11.23;8.60;;;;;;;10.25;100.00;98661.75;4929576;29;20597;-72
2021/12/31 08:10:33;;;;;;;5.50;4.00;;;;;;;10.27;100.00;98670.38;4932487;29;20227;-71
2021/12/31 08:13:21;;;;;;;1.90;1.80;;;;;;;10.33;100.00;98658.38;4925863;29;20207;-72
2021/12/31 08:15:50;;;;;;;1.87;1.77;;;;;;;10.26;100.00;98661.63;4931541;29;20637;-70
2021/12/31 08:18:18;;;;;;;1.90;1.63;;;;;;;10.32;100.00;98660.19;4930962;29;20219;-72
2021/12/31 08:20:46;;;;;;;1.50;1.40;;;;;;;10.35;100.00;98665.19;4930466;29;20211;-72
2021/12/31 08:23:14;;;;;;;1.40;1.40;;;;;;;10.37;100.00;98659.75;4931618;29;20211;-70
2021/12/31 08:25:42;;;;;;;2.33;2.00;;;;;;;10.40;100.00;98659.47;4924870;29;20211;-72
2021/12/31 08:28:11;;;;;;;15.10;7.77;;;;;;;10.40;100.00;98662.94;4929204;29;20223;-72
2021/12/31 08:30:39;;;;;;;2.53;2.33;;;;;;;10.47;100.00;98649.97;4928106;29;20561;-71
2021/12/31 08:33:08;;;;;;;2.43;2.23;;;;;;;10.42;100.00;98652.22;4933420;29;20214;-72
2021/12/31 08:35:37;;;;;;;1.50;1.40;;;;;;;10.45;100.00;98648.47;4927305;29;20220;-71
2021/12/31 08:38:04;;;;;;;2.67;1.73;;;;;;;10.50;100.00;98640.91;4936340;29;20207;-70
2021/12/31 08:40:32;;;;;;;1.87;1.77;;;;;;;10.50;100.00;98648.84;4929650;29;20236;-69
2021/12/31 08:43:02;;;;;;;2.13;1.87;;;;;;;10.47;100.00;98643.84;4929768;29;20235;-72
2021/12/31 08:45:32;;;;;;;1.67;1.57;;;;;;;10.52;100.00;98650.34;4930279;29;20286;-72
2021/12/31 08:48:01;;;;;;;1.80;1.70;;;;;;;10.56;100.00;98646.41;4925967;29;20326;-71
2021/12/31 08:50:32;;;;;;;2.83;1.50;;;;;;;10.52;100.00;98647.69;4932436;29;20236;-71
2021/12/31 08:53:00;;;;;;;6.13;3.23;;;;;;;10.59;100.00;98649.75;4929242;29;20595;-71
2021/12/31 08:55:28;;;;;;;3.80;2.30;;;;;;;10.64;100.00;98645.69;4924567;29;20215;-72
2021/12/31 08:57:56;;;;;;;3.47;2.47;;;;;;;10.67;100.00;98641.91;4927989;29;20770;-72
2021/12/31 09:00:24;;;;;;;1.73;1.63;;;;;;;10.70;100.00;98645.09;4926742;29;20242;-71
2021/12/31 09:02:52;;;;;;;1.90;1.80;;;;;;;10.74;100.00;98637.69;4931348;29;20238;-70
2021/12/31 09:05:22;;;;;;;10.07;5.13;;;;;;;10.86;100.00;98633.81;4928207;29;20211;-72
2021/12/31 09:07:52;;;;;;;1.90;1.80;;;;;;;10.83;100.00;98628.81;4931348;29;20238;-71
2021/12/31 09:10:20;;;;;;;1.47;1.47;;;;;;;10.94;100.00;98629.59;4927694;29;20278;-72
2021/12/31 09:12:50;;;;;;;2.87;2.50;;;;;;;11.05;100.00;98628.53;4929475;29;20218;-72
2021/12/31 09:15:18;;;;;;;1.60;1.50;;;;;;;11.04;100.00;98627.72;4926873;29;20208;-71
2021/12/31 09:17:47;;;;;;;2.13;1.57;;;;;;;11.06;100.00;98630.19;4928592;29;20220;-70
2021/12/31 09:20:15;;;;;;;1.50;1.40;;;;;;;11.23;100.00;98618.75;4934245;29;20259;-71
2021/12/31 09:22:45;;;;;;;5.83;3.60;;;;;;;11.29;100.00;98627.91;4932040;29;20231;-72
2021/12/31 09:25:15;;;;;;;2.03;1.93;;;;;;;11.39;100.00;98628.69;4928263;29;20621;-72
2021/12/31 09:27:43;;;;;;;1.97;1.77;;;;;;;11.43;100.00;98626.53;4926004;29;20324;-71
2021/12/31 09:30:12;;;;;;;1.73;1.63;;;;;;;11.42;100.00;98620.41;4932420;29;20768;-71
2021/12/31 09:32:40;;;;;;;3.40;3.10;;;;;;;11.36;100.00;98618.34;4928311;29;20298;-72
2021/12/31 09:35:09;;;;;;;2.40;2.20;;;;;;;11.26;100.00;98622.91;4934785;29;20216;-72
2021/12/31 09:37:37;;;;;;;2.73;2.50;;;;;;;11.19;100.00;98616.56;4933592;29;20217;-73
2021/12/31 09:40:06;;;;;;;2.00;1.83;;;;;;;11.08;100.00;98620.28;4935975;29;20231;-75
2021/12/31 09:42:38;;;;;;;2.70;2.00;;;;;;;11.10;100.00;98628.91;4934625;29;20235;-72
2021/12/31 09:45:08;;;;;;;2.10;1.70;;;;;;;11.06;100.00;98614.28;4930392;29;20207;-76
2021/12/31 09:47:36;;;;;;;1.87;1.67;;;;;;;11.11;100.00;98620.81;4930637;29;20530;-74
2021/12/31 09:50:04;;;;;;;2.00;1.67;;;;;;;11.33;100.00;98617.84;4933139;29;20230;-75
2021/12/31 09:52:33;;;;;;;3.17;2.87;;;;;;;11.20;100.00;98620.88;4931772;29;20199;-73
2021/12/31 09:55:01;;;;;;;2.33;2.13;;;;;;;11.33;100.00;98615.19;4934152;29;20207;-75
2021/12/31 09:57:29;;;;;;;1.80;1.70;;;;;;;11.40;100.00;98609.13;4929662;29;20215;-76
2021/12/31 10:00:02;;;;;;;1.63;1.53;;;;;;;11.43;100.00;98608.81;4931255;29;20896;-74
2021/12/31 10:02:33;;;;;;;1.57;1.47;;;;;;;11.39;100.00;98596.84;4929821;29;20306;-74
2021/12/31 10:05:03;;;;;;;1.37;1.37;;;;;;;11.48;100.00;98603.03;4928498;29;20320;-74
2021/12/31 10:07:33;;;;;;;1.70;1.50;;;;;;;11.49;100.00;98602.03;4933295;29;20199;-75
2021/12/31 10:10:21;;;;;;;1.53;1.50;;;;;;;11.52;100.00;98601.72;4931216;29;20725;-78
2021/12/31 10:12:51;;;;;;;1.20;1.20;;;;;;;11.59;100.00;98609.91;4930234;29;20208;-75
2021/12/31 10:15:24;;;;;;;1.93;1.83;;;;;;;11.58;100.00;98611.75;4926852;29;20246;-75
2021/12/31 10:17:53;;;;;;;1.37;1.27;;;;;;;11.69;100.00;98602.66;4934429;29;20211;-76
2021/12/31 10:20:22;;;;;;;1.30;1.30;;;;;;;11.76;100.00;98604.72;4934675;29;20223;-76
2021/12/31 10:22:50;;;;;;;1.07;1.07;;;;;;;11.79;100.00;98604.41;4934702;29;20315;-76
2021/12/31 10:25:19;;;;;;;2.67;1.67;;;;;;;11.82;100.00;98596.13;4927317;29;20211;-73
2021/12/31 10:27:49;;;;;;;1.53;1.43;;;;;;;12.03;100.00;98595.75;4930053;29;20742;-77
2021/12/31 10:30:26;;;;;;;3.40;2.00;;;;;;;12.00;100.00;98588.94;4926768;29;21266;-76
2021/12/31 10:32:54;;;;;;;1.53;1.17;;;;;;;12.02;100.00;98596.75;4931766;29;20227;-74
2021/12/31 10:35:23;;;;;;;1.20;1.20;;;;;;;12.06;100.00;98583.97;4927736;29;20212;-74
2021/12/31 10:37:56;;;;;;;1.23;1.13;;;;;;;12.10;100.00;98583.50;4931255;29;20291;-77
2021/12/31 10:40:29;;;;;;;1.60;1.10;;;;;;;12.10;100.00;98583.50;4929596;29;20235;-72
2021/12/31 10:43:08;;;;;;;1.90;1.30;;;;;;;12.16;100.00;98595.34;4932808;29;20227;-77
2021/12/31 10:45:37;;;;;;;1.17;1.07;;;;;;;12.13;100.00;98582.38;4928559;29;20211;-75
2021/12/31 10:48:07;;;;;;;2.13;1.60;;;;;;;12.18;100.00;98581.88;4930118;29;20295;-75
2021/12/31 10:50:37;;;;;;;2.37;1.37;;;;;;;12.32;100.00;98580.44;4930191;29;20243;-75
2021/12/31 10:53:10;;;;;;;1.07;1.07;;;;;;;12.48;100.00;98579.66;4934813;29;20199;-72
2021/12/31 10:55:44;;;;;;;1.23;1.17;;;;;;;12.34;100.00;98573.13;4929310;29;20222;-71
2021/12/31 10:58:14;;;;;;;1.07;1.07;;;;;;;12.34;100.00;98567.81;4924975;29;20580;-69
2021/12/31 11:00:45;;;;;;;1.90;1.60;;;;;;;12.34;100.00;98558.03;4933480;29;20215;-73
2021/12/31 11:03:13;;;;;;;1.57;1.47;;;;;;;12.33;100.00;98558.19;4932867;29;20494;-71
2021/12/31 11:05:41;;;;;;;1.10;1.10;;;;;;;12.39;100.00;98544.25;4931824;29;20294;-69
2021/12/31 11:08:13;;;;;;;1.90;1.37;;;;;;;12.34;100.00;98547.41;4927777;29;20583;-71
2021/12/31 11:10:42;;;;;;;5.00;1.10;;;;;;;12.35;100.00;98549.06;4930699;29;20684;-71
2021/12/31 11:13:13;;;;;;;1.00;1.00;;;;;;;12.49;100.00;98544.09;4928284;29;20210;-70
2021/12/31 11:15:43;;;;;;;2.27;1.53;;;;;;;12.43;100.00;98541.09;4927909;29;20214;-73
2021/12/31 11:18:13;;;;;;;1.53;1.43;;;;;;;12.53;100.00;98545.44;4930153;29;20337;-71
2021/12/31 11:20:42;;;;;;;2.03;1.17;;;;;;;12.66;100.00;98547.63;4929616;29;20551;-71
2021/12/31 11:23:10;;;;;;;1.80;1.57;;;;;;;12.90;100.00;98543.34;4932535;29;20241;-72
2021/12/31 11:25:55;;;;;;;1.83;1.03;;;;;;;12.86;100.00;98540.97;4931592;29;20287;-70
2021/12/31 11:28:27;;;;;;;1.47;1.37;;;;;;;12.89;100.00;98545.16;4927102;29;20212;-70
2021/12/31 11:30:57;;;;;;;1.13;1.13;;;;;;;12.96;100.00;98537.34;4931866;29;20278;-70
2021/12/31 11:33:28;;;;;;;1.77;1.17;;;;;;;13.09;100.00;98552.81;4929198;29;20218;-69